Time;durP1;ratioP1;P1;durP2;ratioP2;P2;SDS_P1;SDS_P2;PMS_P1;PMS_P2;Temp;Humidity;BMP_temperature;BMP_pressure;BME280_temperature;BME280_humidity;BME280_pressure;Samples;Min_cycle;Max_cycle;Signal;HPM_P1;HPM_P2
2021/01/05 00:02:18;;;;;;;15.10;11.53;;;3.80;99.90;;;;;;5033580;28;20437;-71
2021/01/05 00:04:45;;;;;;;19.37;13.70;;;3.80;99.90;;;;;;5033786;28;20207;-71
2021/01/05 00:07:11;;;;;;;17.97;13.40;;;3.80;99.90;;;;;;5025710;28;20176;-71
2021/01/05 00:09:37;;;;;;;18.80;14.20;;;3.60;99.90;;;;;;5032619;28;20501;-70
2021/01/05 00:12:09;;;;;;;18.77;15.00;;;3.70;99.90;;;;;;5033341;28;20879;-71
2021/01/05 00:14:38;;;;;;;19.00;14.33;;;3.70;99.90;;;;;;5033376;28;20209;-71
2021/01/05 00:17:05;;;;;;;17.10;14.30;;;3.80;99.90;;;;;;5033647;28;20418;-71
2021/01/05 00:19:31;;;;;;;20.77;13.30;;;3.90;99.90;;;;;;5033780;28;20424;-71
2021/01/05 00:21:56;;;;;;;16.60;12.57;;;4.00;99.90;;;;;;5033591;28;20780;-71
2021/01/05 00:24:22;;;;;;;18.20;13.40;;;4.10;99.90;;;;;;5033611;28;20190;-71
2021/01/05 00:26:48;;;;;;;18.47;14.23;;;4.10;99.90;;;;;;5033408;28;20216;-70
2021/01/05 00:29:13;;;;;;;19.70;14.70;;;4.20;99.90;;;;;;5025894;28;20187;-71
2021/01/05 00:31:40;;;;;;;18.53;13.50;;;4.20;99.90;;;;;;5032972;28;20214;-71
2021/01/05 00:34:06;;;;;;;17.00;14.20;;;4.20;99.90;;;;;;5032960;28;20204;-71
2021/01/05 00:36:32;;;;;;;21.37;14.60;;;4.30;99.90;;;;;;5033536;28;20774;-71
2021/01/05 00:38:58;;;;;;;19.53;13.63;;;4.20;99.90;;;;;;5033353;28;20419;-71
2021/01/05 00:41:24;;;;;;;18.07;14.00;;;4.10;99.90;;;;;;5033231;28;20417;-71
2021/01/05 00:43:49;;;;;;;19.70;14.30;;;4.10;99.90;;;;;;5032785;28;20187;-71
2021/01/05 00:46:17;;;;;;;18.80;13.43;;;4.20;99.90;;;;;;5032966;28;20187;-71
2021/01/05 00:48:43;;;;;;;18.77;13.20;;;4.00;99.90;;;;;;5033177;28;20434;-71
2021/01/05 00:51:10;;;;;;;21.80;14.97;;;4.10;99.90;;;;;;5032661;28;20937;-71
2021/01/05 00:53:35;;;;;;;17.90;13.17;;;4.00;99.90;;;;;;5032852;28;20199;-71
2021/01/05 00:56:01;;;;;;;20.90;14.90;;;4.10;99.90;;;;;;5032773;28;20418;-71
2021/01/05 00:58:26;;;;;;;21.40;14.43;;;4.10;99.90;;;;;;5033023;28;20218;-70
2021/01/05 01:00:53;;;;;;;21.63;15.70;;;4.10;99.90;;;;;;5032502;28;20218;-71
2021/01/05 01:03:20;;;;;;;19.73;15.17;;;4.00;99.90;;;;;;5032897;28;20601;-71
2021/01/05 01:05:46;;;;;;;23.00;15.97;;;4.00;99.90;;;;;;5033063;28;20451;-71
2021/01/05 01:08:12;;;;;;;14.97;12.07;;;4.10;99.90;;;;;;5032784;28;20762;-71
2021/01/05 01:10:39;;;;;;;19.13;13.40;;;4.20;99.90;;;;;;5032660;28;20495;-71
2021/01/05 01:13:06;;;;;;;19.70;13.40;;;4.10;99.90;;;;;;5032526;28;20466;-71
2021/01/05 01:15:32;;;;;;;15.83;12.87;;;4.10;99.90;;;;;;5032469;28;20494;-71
2021/01/05 01:17:57;;;;;;;18.83;14.13;;;4.00;99.90;;;;;;5032449;28;20426;-71
2021/01/05 01:20:23;;;;;;;20.40;13.60;;;4.00;99.90;;;;;;5032588;28;20189;-71
2021/01/05 01:22:48;;;;;;;20.20;14.57;;;4.00;99.90;;;;;;5032370;28;20195;-71
2021/01/05 01:25:15;;;;;;;17.30;12.70;;;3.90;99.90;;;;;;5030681;28;20657;-71
2021/01/05 01:27:41;;;;;;;20.23;14.30;;;3.90;99.90;;;;;;5032242;28;20183;-71
2021/01/05 01:30:08;;;;;;;19.00;13.47;;;4.00;99.90;;;;;;5032402;28;20866;-71
2021/01/05 01:32:34;;;;;;;16.80;12.67;;;3.90;99.90;;;;;;5031893;28;20437;-71
2021/01/05 01:35:00;;;;;;;17.73;13.50;;;4.00;99.90;;;;;;5031857;28;20994;-71
2021/01/05 01:37:26;;;;;;;16.53;12.40;;;4.00;99.90;;;;;;5032251;28;20410;-71
2021/01/05 01:39:51;;;;;;;20.10;14.17;;;4.00;99.90;;;;;;5032060;28;20418;-71
2021/01/05 01:42:19;;;;;;;18.87;13.07;;;3.90;99.90;;;;;;5031501;28;20195;-71
2021/01/05 01:44:46;;;;;;;20.63;13.90;;;4.00;99.90;;;;;;5032047;28;20185;-71
2021/01/05 01:47:29;;;;;;;21.70;13.40;;;4.00;99.90;;;;;;5029637;28;20448;-71
2021/01/05 01:50:04;;;;;;;21.47;12.80;;;4.00;99.90;;;;;;5037426;28;20414;-70
2021/01/05 01:52:54;;;;;;;18.47;13.20;;;4.00;99.90;;;;;;5031843;28;20520;-71
2021/01/05 01:55:41;;;;;;;18.93;13.33;;;4.10;99.90;;;;;;5032210;28;20457;-71
2021/01/05 01:58:42;;;;;;;18.60;12.47;;;4.10;99.90;;;;;;5032337;28;20401;-71
2021/01/05 02:01:28;;;;;;;18.77;13.30;;;4.20;99.90;;;;;;5025961;28;20426;-71
2021/01/05 02:04:21;;;;;;;17.67;12.03;;;4.10;99.90;;;;;;5032088;28;20475;-71
2021/01/05 02:07:25;;;;;;;20.97;13.43;;;4.20;99.90;;;;;;5032156;28;20396;-71
2021/01/05 02:10:18;;;;;;;16.00;12.40;;;4.20;99.90;;;;;;5031926;28;20407;-71
2021/01/05 02:13:00;;;;;;;17.40;12.43;;;4.20;99.90;;;;;;5032018;28;20461;-70
2021/01/05 02:15:40;;;;;;;18.43;12.37;;;4.20;99.90;;;;;;5032058;28;20947;-71
2021/01/05 02:18:32;;;;;;;21.47;14.87;;;4.20;99.90;;;;;;5032201;28;20386;-71
2021/01/05 02:21:05;;;;;;;17.30;13.00;;;4.10;99.90;;;;;;5031586;28;20419;-71
2021/01/05 02:23:52;;;;;;;18.60;13.30;;;4.10;99.90;;;;;;5032125;28;20951;-71
2021/01/05 02:26:28;;;;;;;21.30;15.60;;;4.10;99.90;;;;;;5031905;28;20754;-72
2021/01/05 02:28:59;;;;;;;23.73;16.07;;;4.00;99.90;;;;;;5031515;28;20421;-71
2021/01/05 02:31:49;;;;;;;20.13;14.30;;;3.90;99.90;;;;;;5031827;28;20398;-71
2021/01/05 02:34:59;;;;;;;21.57;15.57;;;3.90;99.90;;;;;;5032015;28;20527;-71
2021/01/05 02:37:51;;;;;;;21.27;14.63;;;3.80;99.90;;;;;;5031607;28;20502;-72
2021/01/05 02:40:28;;;;;;;17.00;13.77;;;3.90;99.90;;;;;;5031539;28;20413;-72
2021/01/05 02:42:59;;;;;;;20.80;14.63;;;3.90;99.90;;;;;;5031706;28;20923;-72
2021/01/05 02:45:36;;;;;;;19.33;14.57;;;3.90;99.90;;;;;;5031715;28;20802;-72
2021/01/05 02:48:07;;;;;;;19.13;14.13;;;3.90;99.90;;;;;;5031368;28;20442;-72
2021/01/05 02:50:57;;;;;;;20.60;14.63;;;3.80;99.90;;;;;;5031365;28;20398;-72
2021/01/05 02:53:44;;;;;;;26.80;16.47;;;3.60;99.90;;;;;;5032602;28;20433;-70
2021/01/05 02:56:47;;;;;;;20.30;14.63;;;3.70;99.90;;;;;;5035648;28;20437;-71
2021/01/05 02:59:46;;;;;;;21.90;16.10;;;3.80;99.90;;;;;;5035232;28;20449;-71
2021/01/05 03:02:33;;;;;;;22.00;15.20;;;3.70;99.90;;;;;;5035162;28;20391;-71
2021/01/05 03:04:59;;;;;;;20.43;13.70;;;3.60;99.90;;;;;;5035250;28;20394;-72
2021/01/05 03:07:28;;;;;;;21.80;14.43;;;3.60;99.90;;;;;;5034980;28;20775;-72
2021/01/05 03:10:40;;;;;;;20.00;13.87;;;3.60;99.90;;;;;;5034940;28;20168;-71
2021/01/05 03:13:28;;;;;;;20.37;14.00;;;3.60;99.90;;;;;;5035025;28;20457;-71
2021/01/05 03:16:07;;;;;;;20.90;15.20;;;3.60;99.90;;;;;;5035129;28;20439;-71
2021/01/05 03:18:47;;;;;;;21.23;14.90;;;3.70;99.90;;;;;;5034864;28;20421;-71
2021/01/05 03:21:41;;;;;;;22.23;15.43;;;3.70;99.90;;;;;;5034958;28;20391;-71
2021/01/05 03:24:09;;;;;;;21.37;13.43;;;3.70;99.90;;;;;;5034922;28;20421;-71
2021/01/05 03:26:42;;;;;;;21.37;13.17;;;3.80;99.90;;;;;;5034880;28;20410;-71
2021/01/05 03:29:08;;;;;;;18.33;13.97;;;4.00;99.90;;;;;;5034424;28;20552;-71
2021/01/05 03:31:54;;;;;;;20.10;14.73;;;4.00;99.90;;;;;;5034527;28;20406;-71
2021/01/05 03:34:21;;;;;;;20.83;13.70;;;4.00;99.90;;;;;;5034870;28;20510;-71
2021/01/05 03:36:47;;;;;;;23.70;14.80;;;4.00;99.90;;;;;;5034808;28;20402;-71
2021/01/05 03:39:13;;;;;;;20.70;13.77;;;4.10;99.90;;;;;;5034375;28;20423;-72
2021/01/05 03:41:41;;;;;;;20.93;15.60;;;4.10;99.90;;;;;;5033094;28;20402;-72
2021/01/05 03:44:07;;;;;;;19.50;14.20;;;4.00;99.90;;;;;;5034516;28;20453;-72
2021/01/05 03:46:33;;;;;;;22.57;15.00;;;4.00;99.90;;;;;;5034342;28;20426;-71
2021/01/05 03:48:59;;;;;;;19.37;14.17;;;4.00;99.90;;;;;;5033978;28;20480;-71
2021/01/05 03:51:25;;;;;;;20.13;13.87;;;3.80;99.90;;;;;;5033196;28;20398;-72
2021/01/05 03:53:51;;;;;;;20.40;13.73;;;3.80;99.90;;;;;;5033876;28;20257;-71
2021/01/05 03:56:16;;;;;;;19.43;13.73;;;3.80;99.90;;;;;;5034322;28;20408;-71
2021/01/05 03:58:42;;;;;;;24.57;15.87;;;3.80;99.90;;;;;;5033975;28;20514;-71
2021/01/05 04:01:08;;;;;;;17.23;12.40;;;3.90;99.90;;;;;;5034080;28;20175;-71
2021/01/05 04:03:34;;;;;;;19.50;13.73;;;4.00;99.90;;;;;;5032880;28;20437;-72
2021/01/05 04:05:59;;;;;;;19.73;15.10;;;4.10;99.90;;;;;;5033425;28;20402;-72
2021/01/05 04:08:27;;;;;;;20.40;13.90;;;4.10;99.90;;;;;;5033890;28;20179;-72
2021/01/05 04:10:53;;;;;;;19.60;15.43;;;4.20;99.90;;;;;;5033791;28;20202;-72
2021/01/05 04:13:18;;;;;;;22.07;14.90;;;4.20;99.90;;;;;;5033803;28;20458;-72
2021/01/05 04:15:44;;;;;;;22.40;13.97;;;4.20;99.90;;;;;;5033909;28;20159;-72
2021/01/05 04:18:09;;;;;;;35.03;22.97;;;4.10;99.90;;;;;;5033624;28;20196;-72
2021/01/05 04:20:35;;;;;;;24.67;16.20;;;4.10;99.90;;;;;;5033637;28;20534;-72
2021/01/05 04:23:01;;;;;;;20.53;14.80;;;3.90;99.90;;;;;;5033728;28;20182;-72
2021/01/05 04:25:27;;;;;;;20.10;14.90;;;3.90;99.90;;;;;;5033698;28;20536;-73
2021/01/05 04:27:53;;;;;;;20.03;15.00;;;3.80;99.90;;;;;;5033489;28;20195;-71
2021/01/05 04:30:24;;;;;;;18.00;13.73;;;3.80;99.90;;;;;;5033476;28;20406;-71
2021/01/05 04:32:51;;;;;;;22.60;13.53;;;3.80;99.90;;;;;;5033569;28;20414;-71
2021/01/05 04:35:19;;;;;;;22.57;15.40;;;3.90;99.90;;;;;;5033645;28;20481;-71
2021/01/05 04:37:46;;;;;;;19.70;14.33;;;3.90;99.90;;;;;;5033402;28;20904;-71
2021/01/05 04:40:29;;;;;;;18.90;14.63;;;3.90;99.90;;;;;;5033720;28;20437;-71
2021/01/05 04:43:07;;;;;;;20.70;13.20;;;3.80;99.90;;;;;;5033509;28;20505;-72
2021/01/05 04:45:37;;;;;;;22.93;15.63;;;3.80;99.90;;;;;;5033546;28;20548;-71
2021/01/05 04:48:49;;;;;;;21.60;14.57;;;3.90;99.90;;;;;;5032947;28;20868;-71
2021/01/05 04:51:41;;;;;;;21.53;15.13;;;3.90;99.90;;;;;;5010528;28;20427;-71
2021/01/05 04:54:15;;;;;;;21.47;13.07;;;3.90;99.90;;;;;;5046613;28;20452;-71
2021/01/05 04:57:24;;;;;;;23.40;14.30;;;4.00;99.90;;;;;;5033205;28;20409;-72
2021/01/05 05:00:06;;;;;;;19.93;14.37;;;4.00;99.90;;;;;;5021001;28;20517;-71
2021/01/05 05:02:54;;;;;;;23.20;15.50;;;4.00;99.90;;;;;;5032858;28;20756;-71
2021/01/05 05:05:39;;;;;;;25.90;14.83;;;4.00;99.90;;;;;;5029752;28;20813;-71
2021/01/05 05:08:32;;;;;;;20.43;15.00;;;3.90;99.90;;;;;;5033058;28;20443;-71
2021/01/05 05:11:06;;;;;;;22.80;14.90;;;4.00;99.90;;;;;;5032622;28;20965;-71
2021/01/05 05:14:01;;;;;;;18.33;13.10;;;4.00;99.90;;;;;;5032809;28;20461;-71
2021/01/05 05:16:32;;;;;;;23.27;14.93;;;4.10;99.90;;;;;;5032514;28;20385;-71
2021/01/05 05:19:04;;;;;;;20.63;15.67;;;3.90;99.90;;;;;;5032320;28;20866;-71
2021/01/05 05:21:58;;;;;;;21.53;13.60;;;4.00;99.90;;;;;;5032583;28;20382;-71
2021/01/05 05:24:47;;;;;;;23.03;14.60;;;4.00;99.90;;;;;;5032671;28;20472;-71
2021/01/05 05:27:35;;;;;;;23.73;15.17;;;4.10;99.90;;;;;;5034602;28;20417;-71
2021/01/05 05:30:11;;;;;;;22.30;14.07;;;4.00;99.90;;;;;;5032450;28;20933;-71
2021/01/05 05:32:52;;;;;;;25.73;15.37;;;4.20;99.90;;;;;;5032096;28;20454;-71
2021/01/05 05:36:02;;;;;;;24.03;16.70;;;4.10;99.90;;;;;;5032444;28;20448;-72
2021/01/05 05:38:52;;;;;;;20.80;15.20;;;4.10;99.90;;;;;;5027336;28;20449;-71
2021/01/05 05:41:49;;;;;;;23.90;14.80;;;4.10;99.90;;;;;;5012477;28;20402;-71
2021/01/05 05:44:23;;;;;;;22.17;15.07;;;4.20;99.90;;;;;;5012544;28;20990;-72
2021/01/05 05:46:57;;;;;;;23.60;15.30;;;4.10;99.90;;;;;;5012539;28;20422;-71
2021/01/05 05:49:52;;;;;;;22.83;15.37;;;4.10;99.90;;;;;;5019178;28;20454;-71
2021/01/05 05:52:28;;;;;;;22.67;15.90;;;4.10;99.90;;;;;;5023032;28;20454;-71
2021/01/05 05:54:56;;;;;;;23.80;15.40;;;4.10;99.90;;;;;;5032177;28;20434;-72
2021/01/05 05:57:30;;;;;;;21.40;14.87;;;4.00;99.90;;;;;;5032243;28;20437;-72
2021/01/05 06:00:13;;;;;;;21.20;15.00;;;4.10;99.90;;;;;;5032011;28;20464;-71
2021/01/05 06:02:38;;;;;;;22.87;15.80;;;4.10;99.90;;;;;;5032066;28;20820;-71
2021/01/05 06:05:35;;;;;;;25.07;15.17;;;4.10;99.90;;;;;;5032035;28;20413;-71
2021/01/05 06:08:02;;;;;;;27.40;18.17;;;4.20;99.90;;;;;;5031700;28;20228;-71
2021/01/05 06:10:27;;;;;;;25.07;15.43;;;4.20;99.90;;;;;;5031792;28;20961;-71
2021/01/05 06:12:54;;;;;;;25.47;16.27;;;4.20;99.90;;;;;;5031943;28;20429;-71
2021/01/05 06:15:20;;;;;;;23.57;15.37;;;4.10;99.90;;;;;;5031896;28;20186;-71
2021/01/05 06:17:46;;;;;;;19.70;14.27;;;4.20;99.90;;;;;;5032011;28;20505;-71
2021/01/05 06:20:13;;;;;;;25.33;15.73;;;4.20;99.90;;;;;;5031930;28;20946;-71
2021/01/05 06:22:38;;;;;;;25.70;15.80;;;4.20;99.90;;;;;;5031788;28;21032;-72
2021/01/05 06:25:06;;;;;;;25.77;15.73;;;4.20;99.90;;;;;;5031983;28;20417;-71
2021/01/05 06:27:31;;;;;;;25.80;15.10;;;4.10;99.90;;;;;;5031582;28;20415;-72
2021/01/05 06:29:57;;;;;;;27.60;14.30;;;4.10;99.90;;;;;;5035333;28;20412;-71
2021/01/05 06:32:23;;;;;;;24.00;15.70;;;4.10;99.90;;;;;;5035760;28;20191;-71
2021/01/05 06:34:49;;;;;;;26.53;16.77;;;4.10;99.90;;;;;;5035676;28;20192;-71
2021/01/05 06:37:15;;;;;;;26.70;16.80;;;4.10;99.90;;;;;;5035608;28;20163;-72
2021/01/05 06:39:41;;;;;;;19.83;15.10;;;4.20;99.90;;;;;;5035791;28;20186;-71
2021/01/05 06:42:07;;;;;;;24.47;15.53;;;4.10;99.90;;;;;;5035379;28;20406;-71
2021/01/05 06:44:32;;;;;;;25.40;15.63;;;4.10;99.90;;;;;;5035676;28;20168;-71
2021/01/05 06:46:58;;;;;;;26.97;16.23;;;4.10;99.90;;;;;;5034186;28;20191;-73
2021/01/05 06:49:26;;;;;;;25.67;15.33;;;4.20;99.90;;;;;;5035231;28;20183;-72
2021/01/05 06:51:56;;;;;;;26.93;16.13;;;4.20;99.90;;;;;;5035302;28;20274;-72
2021/01/05 06:54:22;;;;;;;21.90;13.97;;;4.30;99.90;;;;;;5035344;28;20954;-73
2021/01/05 06:56:55;;;;;;;23.87;16.67;;;4.30;99.90;;;;;;5035381;28;20412;-71
2021/01/05 06:59:22;;;;;;;26.33;16.50;;;4.20;99.90;;;;;;5035413;28;20445;-71
2021/01/05 07:02:09;;;;;;;21.03;15.20;;;4.10;99.90;;;;;;5034676;28;20989;-71
2021/01/05 07:04:35;;;;;;;26.27;15.10;;;4.10;99.90;;;;;;5035225;28;20405;-72
2021/01/05 07:07:01;;;;;;;23.07;16.10;;;4.10;99.90;;;;;;5035255;28;20892;-72
2021/01/05 07:09:28;;;;;;;21.20;16.17;;;4.00;99.90;;;;;;5035280;28;20172;-71
2021/01/05 07:11:53;;;;;;;21.63;15.03;;;3.80;99.90;;;;;;5034664;28;20406;-73
2021/01/05 07:14:23;;;;;;;22.67;14.80;;;3.80;99.90;;;;;;5034760;28;20453;-72
2021/01/05 07:16:49;;;;;;;23.13;15.67;;;3.90;99.90;;;;;;5035076;28;20218;-72
2021/01/05 07:19:15;;;;;;;23.93;16.20;;;3.90;99.90;;;;;;5034913;28;20888;-72
2021/01/05 07:21:41;;;;;;;24.30;15.10;;;3.90;99.90;;;;;;5034803;28;20422;-71
2021/01/05 07:24:07;;;;;;;22.50;15.13;;;4.00;99.90;;;;;;5034919;28;20428;-72
2021/01/05 07:26:34;;;;;;;26.40;16.53;;;3.90;99.90;;;;;;5034902;28;20410;-71
2021/01/05 07:29:00;;;;;;;23.27;14.90;;;3.90;99.90;;;;;;5034805;28;20485;-72
2021/01/05 07:31:25;;;;;;;21.50;14.20;;;4.10;99.90;;;;;;5033840;28;20520;-72
2021/01/05 07:33:51;;;;;;;26.33;16.53;;;4.10;99.90;;;;;;5034630;28;20450;-72
2021/01/05 07:36:31;;;;;;;22.13;15.53;;;4.20;99.90;;;;;;5034441;28;20179;-72
2021/01/05 07:38:57;;;;;;;24.33;14.03;;;4.20;99.90;;;;;;5034665;28;20263;-71
2021/01/05 07:41:23;;;;;;;28.10;15.77;;;4.20;99.90;;;;;;5033275;28;20879;-71
2021/01/05 07:43:49;;;;;;;26.13;16.03;;;4.20;99.90;;;;;;5034543;28;20203;-71
2021/01/05 07:46:15;;;;;;;22.90;15.30;;;4.30;99.90;;;;;;5033850;28;20437;-71
2021/01/05 07:48:41;;;;;;;26.27;14.47;;;4.30;99.90;;;;;;5034468;28;20410;-72
2021/01/05 07:51:07;;;;;;;20.43;14.03;;;4.40;99.90;;;;;;5034023;28;20269;-72
2021/01/05 07:53:33;;;;;;;22.23;14.93;;;4.50;99.90;;;;;;5034003;28;20959;-72
2021/01/05 07:55:59;;;;;;;25.10;16.30;;;4.40;99.90;;;;;;5034300;28;20417;-72
2021/01/05 07:58:24;;;;;;;21.37;13.77;;;4.50;99.90;;;;;;5034281;28;20413;-71
2021/01/05 08:00:50;;;;;;;21.67;14.87;;;4.50;99.90;;;;;;5034110;28;20410;-71
2021/01/05 08:03:15;;;;;;;21.60;14.80;;;4.50;99.90;;;;;;5033869;28;20270;-72
2021/01/05 08:05:41;;;;;;;27.67;15.43;;;4.50;99.90;;;;;;5034198;28;20177;-71
2021/01/05 08:08:07;;;;;;;20.83;13.40;;;4.30;99.90;;;;;;5034210;28;20176;-70
2021/01/05 08:10:35;;;;;;;24.50;16.30;;;4.30;99.90;;;;;;5033970;28;20168;-71
2021/01/05 08:13:03;;;;;;;20.73;14.20;;;4.30;99.90;;;;;;5033878;28;20776;-71
2021/01/05 08:15:29;;;;;;;23.77;16.07;;;4.30;99.90;;;;;;5033850;28;20982;-72
2021/01/05 08:17:55;;;;;;;23.27;14.50;;;4.40;99.90;;;;;;5033909;28;20405;-72
2021/01/05 08:20:23;;;;;;;24.57;15.50;;;4.30;99.90;;;;;;5033666;28;20250;-74
2021/01/05 08:22:49;;;;;;;20.40;13.60;;;4.30;99.90;;;;;;5033540;28;20207;-73
2021/01/05 08:25:16;;;;;;;28.23;14.67;;;4.40;99.90;;;;;;5033636;28;20441;-74
2021/01/05 08:27:47;;;;;;;21.83;14.77;;;4.40;99.90;;;;;;5033639;28;20425;-73
2021/01/05 08:30:15;;;;;;;23.20;16.07;;;4.50;99.90;;;;;;5033756;28;20399;-71
2021/01/05 08:32:41;;;;;;;23.93;16.40;;;4.40;99.90;;;;;;5033423;28;20429;-70
2021/01/05 08:35:08;;;;;;;22.97;16.33;;;4.40;99.90;;;;;;5033562;28;20985;-73
2021/01/05 08:37:37;;;;;;;23.90;15.60;;;4.30;99.90;;;;;;5033512;28;20695;-73
2021/01/05 08:40:05;;;;;;;26.93;15.30;;;4.40;99.90;;;;;;5033627;28;20417;-73
2021/01/05 08:42:30;;;;;;;26.30;16.13;;;4.50;99.90;;;;;;5033247;28;20438;-73
2021/01/05 08:44:56;;;;;;;24.37;15.10;;;4.50;99.90;;;;;;5033857;28;20431;-72
2021/01/05 08:47:22;;;;;;;23.70;15.20;;;4.50;99.90;;;;;;5033407;28;20222;-72
2021/01/05 08:49:47;;;;;;;22.80;15.10;;;4.50;99.90;;;;;;5033296;28;20176;-72
2021/01/05 08:52:13;;;;;;;27.30;16.60;;;4.50;99.90;;;;;;5032815;28;20176;-72
2021/01/05 08:54:38;;;;;;;23.90;14.90;;;4.60;99.90;;;;;;5033219;28;20265;-72
2021/01/05 08:57:04;;;;;;;25.23;13.57;;;4.70;99.90;;;;;;5032472;28;20263;-73
2021/01/05 08:59:30;;;;;;;22.20;15.23;;;4.70;99.90;;;;;;5033485;28;20233;-72
2021/01/05 09:01:56;;;;;;;23.30;15.07;;;4.80;99.90;;;;;;5033879;28;20727;-72
2021/01/05 09:04:22;;;;;;;22.90;14.57;;;4.70;99.90;;;;;;5032512;28;20414;-73
2021/01/05 09:06:48;;;;;;;21.70;14.73;;;4.70;99.90;;;;;;5032960;28;20617;-73
2021/01/05 09:09:15;;;;;;;23.27;14.50;;;4.70;99.90;;;;;;5032563;28;20179;-72
2021/01/05 09:11:41;;;;;;;28.30;16.17;;;4.70;99.90;;;;;;5032768;28;20395;-72
2021/01/05 09:14:06;;;;;;;24.13;14.97;;;4.60;99.90;;;;;;5032755;28;20822;-72
2021/01/05 09:16:32;;;;;;;24.47;15.30;;;4.70;99.90;;;;;;5032826;28;20210;-72
2021/01/05 09:18:59;;;;;;;21.93;14.47;;;4.70;99.90;;;;;;5032588;28;20226;-72
2021/01/05 09:21:26;;;;;;;23.17;15.83;;;4.80;99.90;;;;;;5032579;28;20164;-72
2021/01/05 09:23:54;;;;;;;20.67;14.47;;;4.70;99.90;;;;;;5032943;28;20429;-72
2021/01/05 09:26:33;;;;;;;24.40;16.30;;;4.80;99.90;;;;;;5033762;28;20456;-73
2021/01/05 09:28:59;;;;;;;21.80;14.27;;;4.80;99.90;;;;;;5033462;28;20406;-73
2021/01/05 09:31:25;;;;;;;21.50;15.37;;;4.80;99.90;;;;;;5032557;28;20426;-72
2021/01/05 09:33:52;;;;;;;25.03;16.03;;;4.90;99.90;;;;;;5033216;28;20450;-73
2021/01/05 09:36:18;;;;;;;24.80;14.60;;;4.90;99.90;;;;;;5032661;28;20475;-73
2021/01/05 09:38:45;;;;;;;26.17;17.03;;;4.90;99.90;;;;;;5030481;28;21096;-73
2021/01/05 09:41:23;;;;;;;22.33;15.43;;;4.80;99.90;;;;;;5030995;28;20458;-73
2021/01/05 09:43:49;;;;;;;26.83;17.23;;;4.90;99.90;;;;;;5031738;28;20454;-72
2021/01/05 09:46:15;;;;;;;27.00;15.87;;;4.90;99.90;;;;;;5032238;28;20433;-72
2021/01/05 09:48:41;;;;;;;22.33;15.27;;;4.90;99.90;;;;;;5032346;28;20399;-72
2021/01/05 09:51:08;;;;;;;25.70;15.90;;;4.90;99.90;;;;;;5031721;28;20819;-72
2021/01/05 09:53:34;;;;;;;25.33;15.00;;;5.00;99.90;;;;;;5032131;28;20429;-72
2021/01/05 09:56:00;;;;;;;21.43;13.30;;;4.90;99.90;;;;;;5031812;28;20969;-72
2021/01/05 09:58:25;;;;;;;21.07;13.70;;;5.00;99.90;;;;;;5032114;28;20207;-72
2021/01/05 10:00:51;;;;;;;22.13;14.77;;;5.10;99.90;;;;;;5031744;28;20182;-72
2021/01/05 10:03:16;;;;;;;23.63;15.37;;;5.10;99.90;;;;;;5031482;28;20191;-72
2021/01/05 10:05:42;;;;;;;25.47;15.60;;;5.10;99.90;;;;;;5032116;28;20177;-73
2021/01/05 10:08:07;;;;;;;22.53;14.80;;;5.10;99.90;;;;;;5031832;28;20175;-72
2021/01/05 10:10:33;;;;;;;24.80;15.20;;;5.20;99.90;;;;;;5031499;28;20217;-73
2021/01/05 10:12:59;;;;;;;22.17;14.37;;;5.20;99.90;;;;;;5031776;28;20573;-72
2021/01/05 10:15:24;;;;;;;21.93;14.53;;;5.10;99.90;;;;;;5031669;28;20250;-72
2021/01/05 10:17:51;;;;;;;26.77;16.57;;;5.20;99.90;;;;;;5031737;28;20202;-73
2021/01/05 10:20:19;;;;;;;21.67;16.00;;;5.00;99.90;;;;;;5012574;28;20403;-73
2021/01/05 10:22:45;;;;;;;34.47;18.07;;;5.00;99.90;;;;;;5013483;28;20446;-73
2021/01/05 10:25:12;;;;;;;28.40;15.47;;;5.00;99.90;;;;;;5035720;28;20422;-73
2021/01/05 10:27:38;;;;;;;24.97;15.97;;;5.00;99.90;;;;;;5031359;28;20183;-73
2021/01/05 10:30:06;;;;;;;26.17;14.10;;;5.10;99.90;;;;;;5031520;28;20459;-72
2021/01/05 10:32:32;;;;;;;28.57;17.60;;;5.10;99.90;;;;;;5031187;28;20797;-73
2021/01/05 10:34:58;;;;;;;26.50;16.67;;;5.00;99.90;;;;;;5031800;28;20503;-73
2021/01/05 10:37:23;;;;;;;33.77;15.80;;;5.00;99.90;;;;;;5031684;28;20183;-73
2021/01/05 10:39:49;;;;;;;28.03;16.67;;;5.00;99.90;;;;;;5033105;28;20164;-72
2021/01/05 10:42:15;;;;;;;23.90;15.47;;;5.10;99.90;;;;;;5032077;28;20178;-73
2021/01/05 10:44:40;;;;;;;31.83;16.37;;;5.10;99.90;;;;;;5032209;28;20171;-72
2021/01/05 10:47:07;;;;;;;28.73;16.40;;;5.00;99.90;;;;;;5031401;28;20499;-73
2021/01/05 10:49:33;;;;;;;25.27;16.00;;;5.00;99.90;;;;;;5032116;28;20183;-72
2021/01/05 10:52:02;;;;;;;31.67;18.37;;;5.10;99.90;;;;;;5032029;28;20406;-72
2021/01/05 10:54:29;;;;;;;26.57;14.97;;;5.20;99.90;;;;;;5031088;28;20461;-72
2021/01/05 10:56:59;;;;;;;28.63;17.40;;;5.20;99.90;;;;;;5031955;28;20429;-72
2021/01/05 10:59:27;;;;;;;27.00;16.90;;;5.20;99.90;;;;;;5031374;28;20425;-72
2021/01/05 11:01:53;;;;;;;31.13;16.90;;;5.20;99.90;;;;;;5032450;28;20399;-73
2021/01/05 11:04:18;;;;;;;26.90;17.60;;;5.30;99.90;;;;;;5030862;28;20446;-73
2021/01/05 11:07:01;;;;;;;26.37;17.00;;;5.30;99.90;;;;;;5031842;28;20453;-72
2021/01/05 11:09:28;;;;;;;24.93;15.43;;;5.30;99.90;;;;;;5032222;28;20176;-72
2021/01/05 11:12:01;;;;;;;25.70;16.10;;;5.20;99.90;;;;;;5031970;28;20410;-72
2021/01/05 11:14:27;;;;;;;29.57;15.20;;;5.50;99.90;;;;;;5031373;28;20445;-73
2021/01/05 11:16:54;;;;;;;26.47;14.07;;;5.40;99.90;;;;;;5035551;28;20424;-72
2021/01/05 11:19:20;;;;;;;26.23;16.83;;;5.40;99.90;;;;;;5036162;28;20422;-73
2021/01/05 11:21:54;;;;;;;28.70;16.70;;;5.40;99.90;;;;;;5035823;28;20430;-73
2021/01/05 11:24:20;;;;;;;26.57;16.97;;;5.40;99.90;;;;;;5035607;28;20422;-73
2021/01/05 11:26:47;;;;;;;24.43;15.67;;;5.30;99.90;;;;;;5035192;28;20430;-73
2021/01/05 11:29:12;;;;;;;25.80;16.97;;;5.40;99.90;;;;;;5035661;28;20434;-72
2021/01/05 11:31:38;;;;;;;29.63;17.87;;;5.40;99.90;;;;;;5035465;28;20411;-73
2021/01/05 11:34:04;;;;;;;27.83;15.93;;;5.40;99.90;;;;;;5035529;28;20222;-73
2021/01/05 11:36:31;;;;;;;32.10;16.53;;;5.40;99.90;;;;;;5034889;28;20422;-72
2021/01/05 11:38:57;;;;;;;30.50;16.23;;;5.40;99.90;;;;;;5034848;28;20172;-72
2021/01/05 11:41:45;;;;;;;31.70;18.07;;;5.30;99.90;;;;;;5034778;28;20556;-72
2021/01/05 11:44:12;;;;;;;25.60;15.33;;;5.30;99.90;;;;;;5026310;28;20446;-72
2021/01/05 11:46:38;;;;;;;30.33;15.07;;;5.30;99.90;;;;;;5035208;28;20454;-72
2021/01/05 11:49:04;;;;;;;38.80;17.80;;;5.40;99.90;;;;;;5035876;28;20473;-72
2021/01/05 11:51:34;;;;;;;27.87;14.90;;;5.30;99.90;;;;;;5034799;28;20171;-72
2021/01/05 11:54:00;;;;;;;28.47;17.87;;;5.30;99.90;;;;;;5035081;28;20538;-72
2021/01/05 11:56:32;;;;;;;34.03;15.97;;;5.20;99.90;;;;;;5035007;28;20489;-72
2021/01/05 11:58:58;;;;;;;34.40;18.83;;;5.20;99.90;;;;;;5034257;28;20524;-73
2021/01/05 12:01:25;;;;;;;32.13;18.60;;;5.20;99.90;;;;;;5034764;28;20421;-73
2021/01/05 12:03:51;;;;;;;32.20;17.63;;;5.10;99.90;;;;;;5035408;28;20489;-72
2021/01/05 12:06:22;;;;;;;26.07;16.70;;;5.10;99.90;;;;;;5034957;28;20450;-72
2021/01/05 12:08:49;;;;;;;25.27;16.53;;;5.10;99.90;;;;;;5033881;28;20592;-72
2021/01/05 12:11:18;;;;;;;23.20;15.07;;;5.10;99.90;;;;;;5034584;28;20900;-72
2021/01/05 12:13:43;;;;;;;22.13;14.80;;;5.10;99.90;;;;;;5033173;28;20975;-72
2021/01/05 12:16:09;;;;;;;30.20;16.93;;;5.00;99.90;;;;;;5034718;28;20403;-72
2021/01/05 12:18:34;;;;;;;29.67;17.43;;;5.00;99.90;;;;;;5034478;28;20250;-72
2021/01/05 12:21:00;;;;;;;32.20;17.33;;;4.90;99.90;;;;;;5035675;28;20208;-72
2021/01/05 12:23:25;;;;;;;30.90;17.07;;;4.90;99.90;;;;;;5035177;28;20198;-72
2021/01/05 12:25:51;;;;;;;26.43;16.43;;;4.90;99.90;;;;;;5034104;28;20648;-72
2021/01/05 12:28:17;;;;;;;26.77;15.40;;;4.80;99.90;;;;;;5033871;28;20171;-72
2021/01/05 12:30:43;;;;;;;27.60;17.17;;;4.90;99.90;;;;;;5034118;28;20432;-72
2021/01/05 12:33:09;;;;;;;32.43;18.43;;;4.80;99.90;;;;;;5028341;28;20203;-72
2021/01/05 12:35:40;;;;;;;33.53;17.60;;;4.80;99.90;;;;;;5034752;28;20285;-72
2021/01/05 12:38:05;;;;;;;29.13;18.30;;;4.90;99.90;;;;;;5034537;28;20421;-72
2021/01/05 12:40:31;;;;;;;34.27;19.23;;;4.90;99.90;;;;;;5033825;28;20410;-72
2021/01/05 12:42:56;;;;;;;28.10;17.00;;;5.00;99.90;;;;;;5033931;28;20668;-72
2021/01/05 12:45:22;;;;;;;34.30;18.07;;;4.90;99.90;;;;;;5034269;28;20625;-72
2021/01/05 12:47:50;;;;;;;30.60;19.33;;;4.90;99.90;;;;;;5033942;28;20188;-72
2021/01/05 12:50:17;;;;;;;32.57;18.60;;;4.70;99.90;;;;;;5017760;28;20176;-72
2021/01/05 12:52:45;;;;;;;34.40;18.37;;;4.60;99.90;;;;;;5014590;28;20444;-73
2021/01/05 12:55:11;;;;;;;33.27;18.03;;;4.60;99.90;;;;;;5022613;28;20461;-72